sensor_id;sensor_type;location;lat;lon;timestamp;temperature;humidity
58517;DHT22;44308;50.810;0.284;2023-08-08T00:01:32;15.30;99.90
58517;DHT22;44308;50.810;0.284;2023-08-08T00:03:57;15.30;99.90
58517;DHT22;44308;50.810;0.284;2023-08-08T00:06:23;15.20;99.90
58517;DHT22;44308;50.810;0.284;2023-08-08T00:08:48;15.20;99.90
58517;DHT22;44308;50.810;0.284;2023-08-08T00:11:14;15.10;99.90
58517;DHT22;44308;50.810;0.284;2023-08-08T00:13:40;15.10;99.90
58517;DHT22;44308;50.810;0.284;2023-08-08T00:16:06;15.00;99.90
58517;DHT22;44308;50.810;0.284;2023-08-08T00:18:32;14.90;99.90
58517;DHT22;44308;50.810;0.284;2023-08-08T00:20:58;14.90;99.90
58517;DHT22;44308;50.810;0.284;2023-08-08T00:23:23;14.90;99.90
58517;DHT22;44308;50.810;0.284;2023-08-08T00:25:49;14.80;99.90
58517;DHT22;44308;50.810;0.284;2023-08-08T00:28:15;14.80;99.90
58517;DHT22;44308;50.810;0.284;2023-08-08T00:30:41;14.70;99.90
58517;DHT22;44308;50.810;0.284;2023-08-08T00:33:07;14.70;99.90
58517;DHT22;44308;50.810;0.284;2023-08-08T00:35:32;14.70;99.90
58517;DHT22;44308;50.810;0.284;2023-08-08T00:37:58;14.70;99.90
58517;DHT22;44308;50.810;0.284;2023-08-08T00:40:24;14.60;99.90
58517;DHT22;44308;50.810;0.284;2023-08-08T00:42:49;14.60;99.90
58517;DHT22;44308;50.810;0.284;2023-08-08T00:45:15;14.60;99.90
58517;DHT22;44308;50.810;0.284;2023-08-08T00:47:41;14.50;99.90
58517;DHT22;44308;50.810;0.284;2023-08-08T00:50:07;14.50;99.90
58517;DHT22;44308;50.810;0.284;2023-08-08T00:52:37;14.40;99.90
58517;DHT22;44308;50.810;0.284;2023-08-08T00:55:03;14.40;99.90
58517;DHT22;44308;50.810;0.284;2023-08-08T00:57:30;14.30;99.90
58517;DHT22;44308;50.810;0.284;2023-08-08T00:59:56;14.30;99.90
58517;DHT22;44308;50.810;0.284;2023-08-08T01:02:23;14.20;99.90
58517;DHT22;44308;50.810;0.284;2023-08-08T01:04:48;14.20;99.90
58517;DHT22;44308;50.810;0.284;2023-08-08T01:09:59;14.10;99.90
58517;DHT22;44308;50.810;0.284;2023-08-08T01:12:37;14.00;99.90
58517;DHT22;44308;50.810;0.284;2023-08-08T01:15:06;14.00;99.90
58517;DHT22;44308;50.810;0.284;2023-08-08T01:17:32;13.90;99.90
58517;DHT22;44308;50.810;0.284;2023-08-08T01:19:58;13.80;99.90
58517;DHT22;44308;50.810;0.284;2023-08-08T01:22:37;13.70;99.90
58517;DHT22;44308;50.810;0.284;2023-08-08T01:25:04;13.70;99.90
58517;DHT22;44308;50.810;0.284;2023-08-08T01:27:31;13.60;99.90
58517;DHT22;44308;50.810;0.284;2023-08-08T01:29:57;13.70;99.90
58517;DHT22;44308;50.810;0.284;2023-08-08T01:32:24;13.70;99.90
58517;DHT22;44308;50.810;0.284;2023-08-08T01:34:50;13.70;99.90
58517;DHT22;44308;50.810;0.284;2023-08-08T01:37:46;13.70;99.90
58517;DHT22;44308;50.810;0.284;2023-08-08T01:40:16;13.70;99.90
58517;DHT22;44308;50.810;0.284;2023-08-08T01:42:47;13.80;99.90
58517;DHT22;44308;50.810;0.284;2023-08-08T01:45:15;13.80;99.90
58517;DHT22;44308;50.810;0.284;2023-08-08T01:47:41;13.70;99.90
58517;DHT22;44308;50.810;0.284;2023-08-08T01:50:07;13.80;99.90
58517;DHT22;44308;50.810;0.284;2023-08-08T01:52:35;13.70;99.90
58517;DHT22;44308;50.810;0.284;2023-08-08T01:55:01;13.80;99.90
58517;DHT22;44308;50.810;0.284;2023-08-08T01:57:26;13.80;99.90
58517;DHT22;44308;50.810;0.284;2023-08-08T01:59:52;13.80;99.90
58517;DHT22;44308;50.810;0.284;2023-08-08T02:02:18;13.80;99.90
58517;DHT22;44308;50.810;0.284;2023-08-08T02:04:44;13.80;99.90
58517;DHT22;44308;50.810;0.284;2023-08-08T02:07:09;13.90;99.90
58517;DHT22;44308;50.810;0.284;2023-08-08T02:09:35;13.80;99.90
58517;DHT22;44308;50.810;0.284;2023-08-08T02:12:02;13.80;99.90
58517;DHT22;44308;50.810;0.284;2023-08-08T02:14:27;13.90;99.90
58517;DHT22;44308;50.810;0.284;2023-08-08T02:16:53;13.90;99.90
58517;DHT22;44308;50.810;0.284;2023-08-08T02:19:19;13.80;99.90
58517;DHT22;44308;50.810;0.284;2023-08-08T02:21:45;13.80;99.90
58517;DHT22;44308;50.810;0.284;2023-08-08T02:24:11;13.90;99.90
58517;DHT22;44308;50.810;0.284;2023-08-08T02:26:37;13.80;99.90
58517;DHT22;44308;50.810;0.284;2023-08-08T02:29:02;13.80;99.90
58517;DHT22;44308;50.810;0.284;2023-08-08T02:31:30;13.80;99.90
58517;DHT22;44308;50.810;0.284;2023-08-08T02:33:56;13.90;99.90
58517;DHT22;44308;50.810;0.284;2023-08-08T02:36:21;13.80;99.90
58517;DHT22;44308;50.810;0.284;2023-08-08T02:38:47;13.80;99.90
58517;DHT22;44308;50.810;0.284;2023-08-08T02:41:15;13.80;99.90
58517;DHT22;44308;50.810;0.284;2023-08-08T02:43:40;13.80;99.90
58517;DHT22;44308;50.810;0.284;2023-08-08T02:46:06;13.80;99.90
58517;DHT22;44308;50.810;0.284;2023-08-08T02:48:32;13.80;99.90
58517;DHT22;44308;50.810;0.284;2023-08-08T02:50:59;13.70;99.90
58517;DHT22;44308;50.810;0.284;2023-08-08T02:53:25;13.70;99.90
58517;DHT22;44308;50.810;0.284;2023-08-08T02:55:50;13.60;99.90
58517;DHT22;44308;50.810;0.284;2023-08-08T02:58:16;13.60;99.90
58517;DHT22;44308;50.810;0.284;2023-08-08T03:00:42;13.60;99.90
58517;DHT22;44308;50.810;0.284;2023-08-08T03:03:07;13.60;99.90
58517;DHT22;44308;50.810;0.284;2023-08-08T03:05:33;13.60;99.90
58517;DHT22;44308;50.810;0.284;2023-08-08T03:07:59;13.50;99.90
58517;DHT22;44308;50.810;0.284;2023-08-08T03:10:25;13.50;99.90
58517;DHT22;44308;50.810;0.284;2023-08-08T03:12:50;13.50;99.90
58517;DHT22;44308;50.810;0.284;2023-08-08T03:15:16;13.50;99.90
58517;DHT22;44308;50.810;0.284;2023-08-08T03:17:42;13.50;99.90
58517;DHT22;44308;50.810;0.284;2023-08-08T03:20:08;13.50;99.90
58517;DHT22;44308;50.810;0.284;2023-08-08T03:22:34;13.40;99.90
58517;DHT22;44308;50.810;0.284;2023-08-08T03:25:00;13.40;99.90
58517;DHT22;44308;50.810;0.284;2023-08-08T03:27:25;13.40;99.90
58517;DHT22;44308;50.810;0.284;2023-08-08T03:29:51;13.30;99.90
58517;DHT22;44308;50.810;0.284;2023-08-08T03:32:17;13.30;99.90
58517;DHT22;44308;50.810;0.284;2023-08-08T03:34:42;13.30;99.90
58517;DHT22;44308;50.810;0.284;2023-08-08T03:37:08;13.30;99.90
58517;DHT22;44308;50.810;0.284;2023-08-08T03:39:34;13.30;99.90
58517;DHT22;44308;50.810;0.284;2023-08-08T03:42:19;13.30;99.90
58517;DHT22;44308;50.810;0.284;2023-08-08T03:44:45;13.30;99.90
58517;DHT22;44308;50.810;0.284;2023-08-08T03:47:11;13.30;99.90
58517;DHT22;44308;50.810;0.284;2023-08-08T03:49:36;13.30;99.90
58517;DHT22;44308;50.810;0.284;2023-08-08T03:52:02;13.40;99.90
58517;DHT22;44308;50.810;0.284;2023-08-08T03:54:28;13.40;99.90
58517;DHT22;44308;50.810;0.284;2023-08-08T03:56:54;13.40;99.90
58517;DHT22;44308;50.810;0.284;2023-08-08T03:59:19;13.40;99.90
58517;DHT22;44308;50.810;0.284;2023-08-08T04:01:45;13.40;99.90
58517;DHT22;44308;50.810;0.284;2023-08-08T04:04:11;13.40;99.90
58517;DHT22;44308;50.810;0.284;2023-08-08T04:06:37;13.30;99.90
58517;DHT22;44308;50.810;0.284;2023-08-08T04:09:03;13.30;99.90
58517;DHT22;44308;50.810;0.284;2023-08-08T04:11:30;13.20;99.90
58517;DHT22;44308;50.810;0.284;2023-08-08T04:13:56;13.10;99.90
58517;DHT22;44308;50.810;0.284;2023-08-08T04:16:22;13.00;99.90
58517;DHT22;44308;50.810;0.284;2023-08-08T04:18:47;12.90;99.90
58517;DHT22;44308;50.810;0.284;2023-08-08T04:21:15;12.90;99.90
58517;DHT22;44308;50.810;0.284;2023-08-08T04:23:41;12.90;99.90
58517;DHT22;44308;50.810;0.284;2023-08-08T04:26:07;12.90;99.90
58517;DHT22;44308;50.810;0.284;2023-08-08T04:28:32;12.90;99.90
58517;DHT22;44308;50.810;0.284;2023-08-08T04:31:01;12.90;99.90
58517;DHT22;44308;50.810;0.284;2023-08-08T04:33:27;13.00;99.90
58517;DHT22;44308;50.810;0.284;2023-08-08T04:35:53;13.00;99.90
58517;DHT22;44308;50.810;0.284;2023-08-08T04:38:18;12.90;99.90
58517;DHT22;44308;50.810;0.284;2023-08-08T04:41:03;12.90;99.90
58517;DHT22;44308;50.810;0.284;2023-08-08T04:43:28;12.90;99.90
58517;DHT22;44308;50.810;0.284;2023-08-08T04:45:54;12.90;99.90
58517;DHT22;44308;50.810;0.284;2023-08-08T04:48:20;12.90;99.90
58517;DHT22;44308;50.810;0.284;2023-08-08T04:50:46;12.90;99.90
58517;DHT22;44308;50.810;0.284;2023-08-08T04:53:12;12.90;99.90
58517;DHT22;44308;50.810;0.284;2023-08-08T04:55:38;12.90;99.90
58517;DHT22;44308;50.810;0.284;2023-08-08T04:58:04;12.90;99.90
58517;DHT22;44308;50.810;0.284;2023-08-08T05:00:30;13.00;99.90
58517;DHT22;44308;50.810;0.284;2023-08-08T05:02:56;13.00;99.90
58517;DHT22;44308;50.810;0.284;2023-08-08T05:05:21;13.10;99.90
58517;DHT22;44308;50.810;0.284;2023-08-08T05:07:47;13.20;99.90
58517;DHT22;44308;50.810;0.284;2023-08-08T05:10:13;13.20;99.90
58517;DHT22;44308;50.810;0.284;2023-08-08T05:12:39;13.20;99.90
58517;DHT22;44308;50.810;0.284;2023-08-08T05:15:05;13.30;99.90
58517;DHT22;44308;50.810;0.284;2023-08-08T05:17:34;13.40;99.90
58517;DHT22;44308;50.810;0.284;2023-08-08T05:20:00;13.50;99.90
58517;DHT22;44308;50.810;0.284;2023-08-08T05:22:26;13.60;99.90
58517;DHT22;44308;50.810;0.284;2023-08-08T05:24:52;13.60;99.90
58517;DHT22;44308;50.810;0.284;2023-08-08T05:27:17;13.70;99.90
58517;DHT22;44308;50.810;0.284;2023-08-08T05:29:43;13.80;99.90
58517;DHT22;44308;50.810;0.284;2023-08-08T05:32:09;13.90;99.90
58517;DHT22;44308;50.810;0.284;2023-08-08T05:34:35;14.00;99.90
58517;DHT22;44308;50.810;0.284;2023-08-08T05:37:00;14.10;99.90
58517;DHT22;44308;50.810;0.284;2023-08-08T05:39:26;14.10;99.90
58517;DHT22;44308;50.810;0.284;2023-08-08T05:41:53;14.20;99.90
58517;DHT22;44308;50.810;0.284;2023-08-08T05:44:19;14.30;99.90
58517;DHT22;44308;50.810;0.284;2023-08-08T05:46:45;14.40;99.90
58517;DHT22;44308;50.810;0.284;2023-08-08T05:49:10;14.50;99.90
58517;DHT22;44308;50.810;0.284;2023-08-08T05:51:36;14.60;99.90
58517;DHT22;44308;50.810;0.284;2023-08-08T05:54:02;14.70;99.90
58517;DHT22;44308;50.810;0.284;2023-08-08T05:56:37;14.80;99.90
58517;DHT22;44308;50.810;0.284;2023-08-08T05:59:03;14.80;99.90
58517;DHT22;44308;50.810;0.284;2023-08-08T06:01:31;14.90;99.90
58517;DHT22;44308;50.810;0.284;2023-08-08T06:03:57;14.90;99.90
58517;DHT22;44308;50.810;0.284;2023-08-08T06:06:26;15.00;99.90
58517;DHT22;44308;50.810;0.284;2023-08-08T06:08:52;15.00;99.90
58517;DHT22;44308;50.810;0.284;2023-08-08T06:11:18;15.00;99.90
58517;DHT22;44308;50.810;0.284;2023-08-08T06:13:43;15.10;99.90
58517;DHT22;44308;50.810;0.284;2023-08-08T06:16:09;15.10;99.90
58517;DHT22;44308;50.810;0.284;2023-08-08T06:18:36;15.10;99.90
58517;DHT22;44308;50.810;0.284;2023-08-08T06:21:03;15.20;99.90
58517;DHT22;44308;50.810;0.284;2023-08-08T06:27:17;15.40;99.90
58517;DHT22;44308;50.810;0.284;2023-08-08T06:29:57;15.70;99.90
58517;DHT22;44308;50.810;0.284;2023-08-08T06:32:58;15.80;99.90
58517;DHT22;44308;50.810;0.284;2023-08-08T06:35:23;15.80;99.90
58517;DHT22;44308;50.810;0.284;2023-08-08T06:37:49;15.80;99.90
58517;DHT22;44308;50.810;0.284;2023-08-08T06:40:15;15.80;99.90
58517;DHT22;44308;50.810;0.284;2023-08-08T06:42:43;15.70;99.90
58517;DHT22;44308;50.810;0.284;2023-08-08T06:45:09;16.00;99.90
58517;DHT22;44308;50.810;0.284;2023-08-08T06:47:35;16.60;99.90
58517;DHT22;44308;50.810;0.284;2023-08-08T06:50:00;17.50;99.90
58517;DHT22;44308;50.810;0.284;2023-08-08T06:52:26;17.90;99.90
58517;DHT22;44308;50.810;0.284;2023-08-08T06:54:52;18.40;99.90
58517;DHT22;44308;50.810;0.284;2023-08-08T06:57:17;18.50;99.90
58517;DHT22;44308;50.810;0.284;2023-08-08T06:59:43;18.60;99.90
58517;DHT22;44308;50.810;0.284;2023-08-08T07:02:08;18.60;99.90
58517;DHT22;44308;50.810;0.284;2023-08-08T07:04:35;18.60;99.90
58517;DHT22;44308;50.810;0.284;2023-08-08T07:07:00;18.40;99.90
58517;DHT22;44308;50.810;0.284;2023-08-08T07:09:26;18.30;99.90
58517;DHT22;44308;50.810;0.284;2023-08-08T07:11:52;18.20;99.90
58517;DHT22;44308;50.810;0.284;2023-08-08T07:14:17;18.00;99.90
58517;DHT22;44308;50.810;0.284;2023-08-08T07:16:43;18.00;99.90
58517;DHT22;44308;50.810;0.284;2023-08-08T07:19:09;18.00;99.90
58517;DHT22;44308;50.810;0.284;2023-08-08T07:21:34;18.00;99.90
58517;DHT22;44308;50.810;0.284;2023-08-08T07:24:00;17.90;99.90
58517;DHT22;44308;50.810;0.284;2023-08-08T07:26:26;17.90;99.90
58517;DHT22;44308;50.810;0.284;2023-08-08T07:28:51;17.90;99.90
58517;DHT22;44308;50.810;0.284;2023-08-08T07:31:17;17.90;99.90
58517;DHT22;44308;50.810;0.284;2023-08-08T07:33:42;18.00;99.90
58517;DHT22;44308;50.810;0.284;2023-08-08T07:36:08;18.20;99.90
58517;DHT22;44308;50.810;0.284;2023-08-08T07:38:34;18.30;99.90
58517;DHT22;44308;50.810;0.284;2023-08-08T07:40:59;18.10;99.90
58517;DHT22;44308;50.810;0.284;2023-08-08T07:43:25;18.20;99.90
58517;DHT22;44308;50.810;0.284;2023-08-08T07:45:50;18.10;99.90
58517;DHT22;44308;50.810;0.284;2023-08-08T07:48:16;18.10;99.90
58517;DHT22;44308;50.810;0.284;2023-08-08T07:50:42;18.10;99.90
58517;DHT22;44308;50.810;0.284;2023-08-08T07:53:07;18.00;99.90
58517;DHT22;44308;50.810;0.284;2023-08-08T07:55:33;18.00;99.90
58517;DHT22;44308;50.810;0.284;2023-08-08T07:57:59;17.80;99.90
58517;DHT22;44308;50.810;0.284;2023-08-08T08:00:24;17.90;99.90
58517;DHT22;44308;50.810;0.284;2023-08-08T08:02:50;17.90;99.90
58517;DHT22;44308;50.810;0.284;2023-08-08T08:05:16;17.90;99.90
58517;DHT22;44308;50.810;0.284;2023-08-08T08:07:41;17.80;99.90
58517;DHT22;44308;50.810;0.284;2023-08-08T08:10:09;17.70;99.90
58517;DHT22;44308;50.810;0.284;2023-08-08T08:12:35;17.60;99.90
58517;DHT22;44308;50.810;0.284;2023-08-08T08:15:02;17.60;99.90
58517;DHT22;44308;50.810;0.284;2023-08-08T08:17:28;17.60;99.90
58517;DHT22;44308;50.810;0.284;2023-08-08T08:19:54;17.60;99.90
58517;DHT22;44308;50.810;0.284;2023-08-08T08:22:20;17.60;99.90
58517;DHT22;44308;50.810;0.284;2023-08-08T08:24:46;17.50;99.90
58517;DHT22;44308;50.810;0.284;2023-08-08T08:27:12;17.50;99.90
58517;DHT22;44308;50.810;0.284;2023-08-08T08:29:38;17.50;99.90
58517;DHT22;44308;50.810;0.284;2023-08-08T08:32:04;17.40;99.90
58517;DHT22;44308;50.810;0.284;2023-08-08T08:34:30;17.50;99.90
58517;DHT22;44308;50.810;0.284;2023-08-08T08:36:55;17.50;99.90
58517;DHT22;44308;50.810;0.284;2023-08-08T08:39:21;17.50;99.90
58517;DHT22;44308;50.810;0.284;2023-08-08T08:41:51;17.50;99.90
58517;DHT22;44308;50.810;0.284;2023-08-08T08:44:21;17.60;99.90
58517;DHT22;44308;50.810;0.284;2023-08-08T08:46:48;17.60;99.90
58517;DHT22;44308;50.810;0.284;2023-08-08T08:49:17;17.60;99.90
58517;DHT22;44308;50.810;0.284;2023-08-08T08:51:44;17.80;99.90
58517;DHT22;44308;50.810;0.284;2023-08-08T08:54:10;17.90;99.90
58517;DHT22;44308;50.810;0.284;2023-08-08T08:56:37;18.10;99.90
58517;DHT22;44308;50.810;0.284;2023-08-08T08:59:04;18.20;99.90
58517;DHT22;44308;50.810;0.284;2023-08-08T09:01:31;18.40;99.90
58517;DHT22;44308;50.810;0.284;2023-08-08T09:03:58;18.60;99.90
58517;DHT22;44308;50.810;0.284;2023-08-08T09:06:24;19.00;99.90
58517;DHT22;44308;50.810;0.284;2023-08-08T09:08:51;19.40;99.90
58517;DHT22;44308;50.810;0.284;2023-08-08T09:11:17;19.70;99.90
58517;DHT22;44308;50.810;0.284;2023-08-08T09:13:43;19.90;99.90
58517;DHT22;44308;50.810;0.284;2023-08-08T09:16:09;20.10;99.90
58517;DHT22;44308;50.810;0.284;2023-08-08T09:18:35;20.30;99.90
58517;DHT22;44308;50.810;0.284;2023-08-08T09:21:04;20.40;99.90
58517;DHT22;44308;50.810;0.284;2023-08-08T09:23:30;20.40;99.90
58517;DHT22;44308;50.810;0.284;2023-08-08T09:25:56;20.40;99.90
58517;DHT22;44308;50.810;0.284;2023-08-08T09:28:22;20.20;99.90
58517;DHT22;44308;50.810;0.284;2023-08-08T09:30:48;20.00;99.90
58517;DHT22;44308;50.810;0.284;2023-08-08T09:33:13;19.90;99.90
58517;DHT22;44308;50.810;0.284;2023-08-08T09:35:39;19.60;99.90
58517;DHT22;44308;50.810;0.284;2023-08-08T09:38:05;19.50;99.90
58517;DHT22;44308;50.810;0.284;2023-08-08T09:40:31;19.50;99.90
58517;DHT22;44308;50.810;0.284;2023-08-08T09:42:57;19.60;99.90
58517;DHT22;44308;50.810;0.284;2023-08-08T09:45:24;19.40;99.90
58517;DHT22;44308;50.810;0.284;2023-08-08T09:47:50;19.40;99.90
58517;DHT22;44308;50.810;0.284;2023-08-08T09:50:17;19.50;99.90
58517;DHT22;44308;50.810;0.284;2023-08-08T09:52:45;19.50;99.90
58517;DHT22;44308;50.810;0.284;2023-08-08T09:55:11;19.50;99.90
58517;DHT22;44308;50.810;0.284;2023-08-08T09:57:41;19.50;99.90
58517;DHT22;44308;50.810;0.284;2023-08-08T10:00:16;19.40;99.90
58517;DHT22;44308;50.810;0.284;2023-08-08T10:02:44;19.30;99.90
58517;DHT22;44308;50.810;0.284;2023-08-08T10:05:10;19.00;99.90
58517;DHT22;44308;50.810;0.284;2023-08-08T10:07:39;18.90;99.90
58517;DHT22;44308;50.810;0.284;2023-08-08T10:10:07;18.90;99.90
58517;DHT22;44308;50.810;0.284;2023-08-08T10:12:39;18.80;99.90
58517;DHT22;44308;50.810;0.284;2023-08-08T10:15:09;18.80;99.90
58517;DHT22;44308;50.810;0.284;2023-08-08T10:17:37;18.80;99.90
58517;DHT22;44308;50.810;0.284;2023-08-08T10:20:05;18.70;99.90
58517;DHT22;44308;50.810;0.284;2023-08-08T10:22:36;18.60;99.90
58517;DHT22;44308;50.810;0.284;2023-08-08T10:25:07;18.70;99.90
58517;DHT22;44308;50.810;0.284;2023-08-08T13:09:48;20.40;99.90
58517;DHT22;44308;50.810;0.284;2023-08-08T13:12:52;20.20;99.90
58517;DHT22;44308;50.810;0.284;2023-08-08T13:19:26;20.40;99.90
58517;DHT22;44308;50.810;0.284;2023-08-08T13:21:52;20.30;99.90
58517;DHT22;44308;50.810;0.284;2023-08-08T13:24:34;20.10;99.90
58517;DHT22;44308;50.810;0.284;2023-08-08T13:27:00;19.80;99.90
58517;DHT22;44308;50.810;0.284;2023-08-08T13:29:26;19.80;99.90
58517;DHT22;44308;50.810;0.284;2023-08-08T13:31:53;19.90;99.90
58517;DHT22;44308;50.810;0.284;2023-08-08T13:34:19;20.10;99.90
58517;DHT22;44308;50.810;0.284;2023-08-08T13:36:44;20.00;99.90
58517;DHT22;44308;50.810;0.284;2023-08-08T13:39:10;20.20;99.90
58517;DHT22;44308;50.810;0.284;2023-08-08T13:41:37;20.40;99.90
58517;DHT22;44308;50.810;0.284;2023-08-08T13:44:03;20.30;99.90
58517;DHT22;44308;50.810;0.284;2023-08-08T13:46:29;20.20;99.90
58517;DHT22;44308;50.810;0.284;2023-08-08T13:48:55;20.30;99.90
58517;DHT22;44308;50.810;0.284;2023-08-08T13:51:21;20.40;99.90
58517;DHT22;44308;50.810;0.284;2023-08-08T13:53:56;20.10;99.90
58517;DHT22;44308;50.810;0.284;2023-08-08T14:00:09;20.00;99.90
58517;DHT22;44308;50.810;0.284;2023-08-08T14:05:46;19.80;99.90
58517;DHT22;44308;50.810;0.284;2023-08-08T14:08:12;19.50;99.90
58517;DHT22;44308;50.810;0.284;2023-08-08T14:10:48;19.40;99.90
58517;DHT22;44308;50.810;0.284;2023-08-08T14:13:14;19.40;99.90
58517;DHT22;44308;50.810;0.284;2023-08-08T14:15:49;19.10;99.90
58517;DHT22;44308;50.810;0.284;2023-08-08T14:18:17;19.00;99.90
58517;DHT22;44308;50.810;0.284;2023-08-08T14:20:43;19.10;99.90
58517;DHT22;44308;50.810;0.284;2023-08-08T14:23:09;19.00;99.90
58517;DHT22;44308;50.810;0.284;2023-08-08T14:25:34;19.10;99.90
58517;DHT22;44308;50.810;0.284;2023-08-08T14:28:01;19.10;99.90
58517;DHT22;44308;50.810;0.284;2023-08-08T14:30:27;19.10;99.90
58517;DHT22;44308;50.810;0.284;2023-08-08T14:32:53;19.10;99.90
58517;DHT22;44308;50.810;0.284;2023-08-08T14:35:20;19.10;99.90
58517;DHT22;44308;50.810;0.284;2023-08-08T14:37:45;19.00;99.90
58517;DHT22;44308;50.810;0.284;2023-08-08T14:43:07;19.10;99.90
58517;DHT22;44308;50.810;0.284;2023-08-08T14:45:37;19.20;99.90
58517;DHT22;44308;50.810;0.284;2023-08-08T14:48:04;19.20;99.90
58517;DHT22;44308;50.810;0.284;2023-08-08T14:50:31;19.20;99.90
58517;DHT22;44308;50.810;0.284;2023-08-08T14:53:07;19.20;99.90
58517;DHT22;44308;50.810;0.284;2023-08-08T14:55:57;19.10;99.90
58517;DHT22;44308;50.810;0.284;2023-08-08T14:58:33;19.00;99.90
58517;DHT22;44308;50.810;0.284;2023-08-08T15:01:15;19.00;99.90
58517;DHT22;44308;50.810;0.284;2023-08-08T15:03:51;19.00;99.90
58517;DHT22;44308;50.810;0.284;2023-08-08T15:06:22;19.10;99.90
58517;DHT22;44308;50.810;0.284;2023-08-08T15:08:47;19.10;99.90
58517;DHT22;44308;50.810;0.284;2023-08-08T15:11:15;19.00;99.90
58517;DHT22;44308;50.810;0.284;2023-08-08T15:13:42;18.90;99.90
58517;DHT22;44308;50.810;0.284;2023-08-08T15:16:08;18.90;99.90
58517;DHT22;44308;50.810;0.284;2023-08-08T15:18:34;18.90;99.90
58517;DHT22;44308;50.810;0.284;2023-08-08T15:20:59;18.70;99.90
58517;DHT22;44308;50.810;0.284;2023-08-08T15:23:26;18.70;99.90
58517;DHT22;44308;50.810;0.284;2023-08-08T15:25:52;18.70;99.90
58517;DHT22;44308;50.810;0.284;2023-08-08T15:28:17;18.80;99.90
58517;DHT22;44308;50.810;0.284;2023-08-08T15:30:44;18.70;99.90
58517;DHT22;44308;50.810;0.284;2023-08-08T15:33:09;18.70;99.90
58517;DHT22;44308;50.810;0.284;2023-08-08T15:35:35;18.80;99.90
58517;DHT22;44308;50.810;0.284;2023-08-08T15:38:01;18.60;99.90
58517;DHT22;44308;50.810;0.284;2023-08-08T15:40:30;18.50;99.90
58517;DHT22;44308;50.810;0.284;2023-08-08T15:42:57;18.50;99.90
58517;DHT22;44308;50.810;0.284;2023-08-08T15:45:22;18.40;99.90
58517;DHT22;44308;50.810;0.284;2023-08-08T15:47:49;18.40;99.90
58517;DHT22;44308;50.810;0.284;2023-08-08T15:50:16;18.40;99.90
58517;DHT22;44308;50.810;0.284;2023-08-08T15:52:42;18.40;99.90
58517;DHT22;44308;50.810;0.284;2023-08-08T15:55:14;18.30;99.90
58517;DHT22;44308;50.810;0.284;2023-08-08T15:58:06;18.10;99.90
58517;DHT22;44308;50.810;0.284;2023-08-08T16:00:52;18.10;99.90
58517;DHT22;44308;50.810;0.284;2023-08-08T16:03:18;18.10;99.90
58517;DHT22;44308;50.810;0.284;2023-08-08T16:05:44;18.00;99.90
58517;DHT22;44308;50.810;0.284;2023-08-08T16:08:10;18.10;99.90
58517;DHT22;44308;50.810;0.284;2023-08-08T16:10:36;18.00;99.90
58517;DHT22;44308;50.810;0.284;2023-08-08T16:13:01;18.00;99.90
58517;DHT22;44308;50.810;0.284;2023-08-08T16:15:27;18.00;99.90
58517;DHT22;44308;50.810;0.284;2023-08-08T16:17:53;18.10;99.90
58517;DHT22;44308;50.810;0.284;2023-08-08T16:20:18;18.10;99.90
58517;DHT22;44308;50.810;0.284;2023-08-08T16:22:44;18.10;99.90
58517;DHT22;44308;50.810;0.284;2023-08-08T16:25:10;18.00;99.90
58517;DHT22;44308;50.810;0.284;2023-08-08T16:27:36;18.10;99.90
58517;DHT22;44308;50.810;0.284;2023-08-08T16:30:02;18.10;99.90
58517;DHT22;44308;50.810;0.284;2023-08-08T16:32:28;18.10;99.90
58517;DHT22;44308;50.810;0.284;2023-08-08T16:34:55;18.10;99.90
58517;DHT22;44308;50.810;0.284;2023-08-08T16:37:20;18.10;99.90
58517;DHT22;44308;50.810;0.284;2023-08-08T16:39:47;18.10;99.90
58517;DHT22;44308;50.810;0.284;2023-08-08T16:42:13;18.20;99.90
58517;DHT22;44308;50.810;0.284;2023-08-08T16:44:39;18.20;99.90
58517;DHT22;44308;50.810;0.284;2023-08-08T16:47:04;18.10;99.90
58517;DHT22;44308;50.810;0.284;2023-08-08T16:49:32;18.10;99.90
58517;DHT22;44308;50.810;0.284;2023-08-08T16:51:58;18.20;99.90
58517;DHT22;44308;50.810;0.284;2023-08-08T16:54:26;18.20;99.90
58517;DHT22;44308;50.810;0.284;2023-08-08T16:56:52;18.20;99.90
58517;DHT22;44308;50.810;0.284;2023-08-08T16:59:17;18.20;99.90
58517;DHT22;44308;50.810;0.284;2023-08-08T17:01:43;18.30;99.90
58517;DHT22;44308;50.810;0.284;2023-08-08T17:04:10;18.30;99.90
58517;DHT22;44308;50.810;0.284;2023-08-08T17:06:40;18.20;99.90
58517;DHT22;44308;50.810;0.284;2023-08-08T17:09:06;18.30;99.90
58517;DHT22;44308;50.810;0.284;2023-08-08T17:11:33;18.40;99.90
58517;DHT22;44308;50.810;0.284;2023-08-08T17:13:59;18.30;99.90
58517;DHT22;44308;50.810;0.284;2023-08-08T17:16:25;18.40;99.90
58517;DHT22;44308;50.810;0.284;2023-08-08T17:18:50;18.40;99.90
58517;DHT22;44308;50.810;0.284;2023-08-08T17:21:18;18.40;99.90
58517;DHT22;44308;50.810;0.284;2023-08-08T17:23:44;18.40;99.90
58517;DHT22;44308;50.810;0.284;2023-08-08T17:26:09;18.40;99.90
58517;DHT22;44308;50.810;0.284;2023-08-08T17:28:35;18.40;99.90
58517;DHT22;44308;50.810;0.284;2023-08-08T17:31:03;18.40;99.90
58517;DHT22;44308;50.810;0.284;2023-08-08T17:33:29;18.50;99.90
58517;DHT22;44308;50.810;0.284;2023-08-08T17:35:55;18.50;99.90
58517;DHT22;44308;50.810;0.284;2023-08-08T17:38:21;18.50;99.90
58517;DHT22;44308;50.810;0.284;2023-08-08T17:40:47;18.40;99.90
58517;DHT22;44308;50.810;0.284;2023-08-08T17:43:13;18.50;99.90
58517;DHT22;44308;50.810;0.284;2023-08-08T17:45:39;18.50;99.90
58517;DHT22;44308;50.810;0.284;2023-08-08T17:48:05;18.50;99.90
58517;DHT22;44308;50.810;0.284;2023-08-08T17:50:31;18.60;99.90
58517;DHT22;44308;50.810;0.284;2023-08-08T17:52:57;18.60;99.90
58517;DHT22;44308;50.810;0.284;2023-08-08T17:55:23;18.60;99.90
58517;DHT22;44308;50.810;0.284;2023-08-08T17:57:49;18.60;99.90
58517;DHT22;44308;50.810;0.284;2023-08-08T18:00:15;18.50;99.90
58517;DHT22;44308;50.810;0.284;2023-08-08T18:02:41;18.50;99.90
58517;DHT22;44308;50.810;0.284;2023-08-08T18:05:07;18.50;99.90
58517;DHT22;44308;50.810;0.284;2023-08-08T18:07:33;18.50;99.90
58517;DHT22;44308;50.810;0.284;2023-08-08T18:09:59;18.40;99.90
58517;DHT22;44308;50.810;0.284;2023-08-08T18:12:25;18.50;99.90
58517;DHT22;44308;50.810;0.284;2023-08-08T18:14:51;18.40;99.90
58517;DHT22;44308;50.810;0.284;2023-08-08T18:17:22;18.40;99.90
58517;DHT22;44308;50.810;0.284;2023-08-08T18:19:49;18.40;99.90
58517;DHT22;44308;50.810;0.284;2023-08-08T18:22:15;18.40;99.90
58517;DHT22;44308;50.810;0.284;2023-08-08T18:24:41;18.40;99.90
58517;DHT22;44308;50.810;0.284;2023-08-08T18:27:10;18.40;99.90
58517;DHT22;44308;50.810;0.284;2023-08-08T18:29:38;18.30;99.90
58517;DHT22;44308;50.810;0.284;2023-08-08T18:32:05;18.30;99.90